Time;durP1;ratioP1;P1;durP2;ratioP2;P2;SDS_P1;SDS_P2;PMS_P1;PMS_P2;Temp;Humidity;BMP_temperature;BMP_pressure;BME280_temperature;BME280_humidity;BME280_pressure;Samples;Min_cycle;Max_cycle;Signal;HPM_P1;HPM_P2
2020/12/16 00:01:08;;;;;;;49.87;44.53;;;;;;;;;;5057652;28;20417;-81
2020/12/16 00:03:35;;;;;;;48.87;42.90;;;;;;;;;;5057632;28;20459;-81
2020/12/16 00:06:03;;;;;;;48.97;43.77;;;;;;;;;;5057038;28;20442;-81
2020/12/16 00:08:30;;;;;;;49.63;44.53;;;;;;;;;;5057509;28;20446;-81
2020/12/16 00:10:57;;;;;;;49.47;42.73;;;;;;;;;;5056624;28;20432;-81
2020/12/16 00:13:24;;;;;;;55.57;47.07;;;;;;;;;;5039418;28;20439;-81
2020/12/16 00:15:51;;;;;;;82.40;47.70;;;;;;;;;;5056797;28;20967;-81
2020/12/16 00:18:20;;;;;;;45.20;41.20;;;;;;;;;;5057012;28;20919;-81
2020/12/16 00:20:47;;;;;;;48.03;43.53;;;;;;;;;;5057160;28;20967;-81
2020/12/16 00:23:15;;;;;;;48.13;43.10;;;;;;;;;;5057064;28;20480;-81
2020/12/16 00:25:42;;;;;;;45.50;41.30;;;;;;;;;;5056725;28;20486;-81
2020/12/16 00:28:09;;;;;;;48.83;43.60;;;;;;;;;;5057107;28;20769;-81
2020/12/16 00:30:36;;;;;;;47.13;42.70;;;;;;;;;;5056840;28;20210;-81
2020/12/16 00:33:03;;;;;;;47.25;42.63;;;;;;;;;;5056545;28;20984;-81
2020/12/16 00:35:30;;;;;;;51.20;45.17;;;;;;;;;;5056518;28;20219;-81
2020/12/16 00:37:57;;;;;;;50.70;45.63;;;;;;;;;;5038736;28;21008;-81
2020/12/16 00:40:27;;;;;;;49.30;44.10;;;;;;;;;;5056795;28;20424;-81
2020/12/16 00:42:54;;;;;;;52.17;46.73;;;;;;;;;;5056810;28;20416;-81
2020/12/16 00:45:21;;;;;;;52.17;45.20;;;;;;;;;;5056597;28;20455;-81
2020/12/16 00:47:48;;;;;;;52.00;46.43;;;;;;;;;;5056609;28;20444;-81
2020/12/16 00:50:15;;;;;;;48.30;43.40;;;;;;;;;;5055588;28;20442;-82
2020/12/16 00:52:42;;;;;;;56.47;47.00;;;;;;;;;;5056257;28;20404;-81
2020/12/16 00:55:09;;;;;;;48.60;43.60;;;;;;;;;;5056233;28;20516;-81
2020/12/16 00:57:37;;;;;;;47.20;42.60;;;;;;;;;;5055711;28;20446;-81
2020/12/16 01:00:06;;;;;;;46.63;42.03;;;;;;;;;;5055669;28;20409;-80
2020/12/16 01:02:33;;;;;;;47.33;42.50;;;;;;;;;;5056083;28;20460;-81
2020/12/16 01:04:59;;;;;;;48.33;43.40;;;;;;;;;;5056427;28;20420;-81
2020/12/16 01:07:26;;;;;;;48.40;43.30;;;;;;;;;;5055975;28;20439;-81
2020/12/16 01:09:53;;;;;;;60.40;47.60;;;;;;;;;;5055101;28;20889;-81
2020/12/16 01:12:20;;;;;;;48.00;42.80;;;;;;;;;;5055971;28;20434;-81
2020/12/16 01:14:48;;;;;;;56.83;44.13;;;;;;;;;;5056217;28;20417;-82
2020/12/16 01:17:15;;;;;;;47.30;42.57;;;;;;;;;;5038436;28;20421;-81
2020/12/16 01:19:42;;;;;;;46.67;42.30;;;;;;;;;;5037957;28;20449;-81
2020/12/16 01:22:09;;;;;;;49.27;44.30;;;;;;;;;;5055838;28;20788;-81
2020/12/16 01:24:36;;;;;;;50.33;45.20;;;;;;;;;;5054929;28;20445;-81
2020/12/16 01:27:03;;;;;;;47.77;42.93;;;;;;;;;;5055463;28;20758;-82
2020/12/16 01:29:30;;;;;;;44.87;40.63;;;;;;;;;;5055582;28;20420;-81
2020/12/16 01:31:57;;;;;;;48.10;43.27;;;;;;;;;;5055576;28;20430;-81
2020/12/16 01:34:24;;;;;;;49.43;44.57;;;;;;;;;;5055765;28;20436;-81
2020/12/16 01:36:51;;;;;;;47.30;42.50;;;;;;;;;;5037724;28;20873;-81
2020/12/16 01:39:18;;;;;;;50.50;43.87;;;;;;;;;;5037797;28;20453;-81
2020/12/16 01:41:47;;;;;;;62.73;48.13;;;;;;;;;;5055805;28;20772;-81
2020/12/16 01:44:14;;;;;;;49.97;44.83;;;;;;;;;;5055764;28;20442;-81
2020/12/16 01:46:51;;;;;;;47.80;41.90;;;;;;;;;;5055491;28;20413;-81
2020/12/16 01:49:19;;;;;;;56.53;45.20;;;;;;;;;;5056391;28;20409;-81
2020/12/16 01:51:46;;;;;;;71.77;50.73;;;;;;;;;;5055168;28;20474;-81
2020/12/16 01:54:15;;;;;;;47.45;42.85;;;;;;;;;;5055513;28;20416;-81
2020/12/16 01:56:42;;;;;;;46.07;41.60;;;;;;;;;;5055301;28;20226;-82
2020/12/16 01:59:10;;;;;;;43.27;39.20;;;;;;;;;;5055109;28;20412;-81
2020/12/16 02:01:39;;;;;;;49.03;43.77;;;;;;;;;;5053806;28;20580;-80
2020/12/16 02:04:08;;;;;;;43.93;39.60;;;;;;;;;;5055139;28;20442;-81
2020/12/16 02:06:35;;;;;;;46.27;41.47;;;;;;;;;;5054893;28;20450;-80
2020/12/16 02:09:04;;;;;;;53.45;44.53;;;;;;;;;;5055242;28;20504;-81
2020/12/16 02:11:31;;;;;;;48.77;43.60;;;;;;;;;;5054341;28;20284;-81
2020/12/16 02:13:58;;;;;;;54.63;44.10;;;;;;;;;;5054969;28;20431;-81
2020/12/16 02:16:24;;;;;;;47.30;42.43;;;;;;;;;;5054807;28;20487;-81
2020/12/16 02:18:52;;;;;;;49.90;43.63;;;;;;;;;;5055330;28;20773;-81
2020/12/16 02:21:19;;;;;;;49.27;44.37;;;;;;;;;;5037427;28;20435;-81
2020/12/16 02:23:48;;;;;;;51.40;43.83;;;;;;;;;;5055200;28;20430;-81
2020/12/16 02:26:16;;;;;;;49.10;43.70;;;;;;;;;;5054634;28;20417;-81
2020/12/16 02:28:42;;;;;;;48.60;43.63;;;;;;;;;;5054869;28;20875;-81
2020/12/16 02:31:09;;;;;;;47.17;42.60;;;;;;;;;;5054947;28;20412;-81
2020/12/16 02:33:36;;;;;;;48.13;43.17;;;;;;;;;;5054840;28;20420;-81
2020/12/16 02:36:03;;;;;;;52.97;46.53;;;;;;;;;;5054246;28;20492;-81
2020/12/16 02:38:31;;;;;;;61.25;50.20;;;;;;;;;;5054655;28;20250;-82
2020/12/16 02:40:58;;;;;;;56.63;46.67;;;;;;;;;;5054583;28;20602;-81
2020/12/16 02:43:25;;;;;;;46.00;41.53;;;;;;;;;;5054489;28;20773;-81
2020/12/16 02:45:52;;;;;;;48.20;42.53;;;;;;;;;;5054451;28;20188;-81
2020/12/16 02:48:19;;;;;;;45.47;41.17;;;;;;;;;;5054528;28;20476;-81
2020/12/16 02:50:46;;;;;;;67.03;46.00;;;;;;;;;;5054341;28;20417;-81
2020/12/16 02:53:13;;;;;;;65.47;45.83;;;;;;;;;;5054460;28;20436;-81
2020/12/16 02:55:40;;;;;;;53.40;45.30;;;;;;;;;;5053911;28;20485;-82
2020/12/16 02:58:06;;;;;;;154.60;51.37;;;;;;;;;;5053793;28;20467;-81
2020/12/16 03:00:34;;;;;;;101.33;48.20;;;;;;;;;;5053757;28;20880;-81
2020/12/16 03:03:01;;;;;;;106.70;47.27;;;;;;;;;;5053625;28;20489;-81
2020/12/16 03:05:28;;;;;;;97.37;47.03;;;;;;;;;;5036432;28;20447;-81
2020/12/16 03:07:55;;;;;;;140.00;40.60;;;;;;;;;;5054025;28;20874;-81
2020/12/16 03:10:22;;;;;;;43.55;39.35;;;;;;;;;;5054255;28;20419;-81
2020/12/16 03:12:48;;;;;;;42.00;37.73;;;;;;;;;;5054151;28;20188;-81
2020/12/16 03:15:15;;;;;;;38.33;35.15;;;;;;;;;;5053794;28;20927;-81
2020/12/16 03:17:43;;;;;;;131.43;45.47;;;;;;;;;;5054055;28;20184;-81
2020/12/16 03:20:10;;;;;;;87.73;46.83;;;;;;;;;;5054186;28;20297;-81
2020/12/16 03:22:37;;;;;;;71.50;40.65;;;;;;;;;;5054087;28;20484;-81
2020/12/16 03:25:04;;;;;;;64.65;38.80;;;;;;;;;;5058011;28;20241;-81
2020/12/16 03:27:31;;;;;;;63.00;37.63;;;;;;;;;;5040133;28;20199;-81
2020/12/16 03:29:57;;;;;;;83.55;40.88;;;;;;;;;;5057852;28;20218;-81
2020/12/16 03:32:24;;;;;;;97.50;42.88;;;;;;;;;;5058027;28;20227;-81
2020/12/16 03:34:52;;;;;;;136.10;45.65;;;;;;;;;;5040109;28;20204;-81
2020/12/16 03:37:19;;;;;;;168.57;47.22;;;;;;;;;;5057371;28;20630;-81
2020/12/16 03:39:46;;;;;;;242.88;49.72;;;;;;;;;;5058171;28;20204;-81
2020/12/16 03:42:13;;;;;;;258.45;51.38;;;;;;;;;;5057841;28;20195;-81
2020/12/16 03:44:40;;;;;;;191.00;47.45;;;;;;;;;;5057696;28;20641;-81
2020/12/16 03:47:07;;;;;;;76.72;40.40;;;;;;;;;;5057776;28;20224;-80
2020/12/16 03:49:34;;;;;;;75.90;40.47;;;;;;;;;;5057422;28;20200;-81
2020/12/16 03:52:01;;;;;;;65.88;42.28;;;;;;;;;;5057518;28;20649;-81
2020/12/16 03:54:28;;;;;;;50.47;39.92;;;;;;;;;;5057770;28;20201;-82
2020/12/16 03:56:55;;;;;;;67.75;37.28;;;;;;;;;;5057541;28;20226;-81
2020/12/16 03:59:22;;;;;;;73.82;42.25;;;;;;;;;;5057251;28;20653;-81
2020/12/16 04:01:51;;;;;;;101.75;46.22;;;;;;;;;;5057014;28;20708;-81
2020/12/16 04:04:19;;;;;;;102.60;44.90;;;;;;;;;;5039589;28;20231;-81
2020/12/16 04:06:45;;;;;;;190.40;51.28;;;;;;;;;;5057319;28;20220;-81
2020/12/16 04:09:13;;;;;;;163.45;48.80;;;;;;;;;;5056987;28;20207;-81
2020/12/16 04:11:40;;;;;;;202.48;51.33;;;;;;;;;;5056202;28;20242;-81
2020/12/16 04:14:07;;;;;;;221.85;49.47;;;;;;;;;;5056292;28;20189;-81
2020/12/16 04:16:34;;;;;;;217.85;49.65;;;;;;;;;;5039185;28;20248;-81
2020/12/16 04:19:01;;;;;;;150.85;46.00;;;;;;;;;;5057126;28;20275;-81
2020/12/16 04:21:28;;;;;;;197.68;48.80;;;;;;;;;;5057203;28;20213;-81
2020/12/16 04:23:55;;;;;;;138.93;46.58;;;;;;;;;;5056973;28;20194;-81
2020/12/16 04:26:28;;;;;;;54.33;43.50;;;;;;;;;;5057011;28;20199;-81
2020/12/16 04:28:54;;;;;;;45.60;40.70;;;;;;;;;;5056928;28;20248;-81
2020/12/16 04:31:21;;;;;;;44.65;40.22;;;;;;;;;;5056874;28;20190;-81
2020/12/16 04:33:48;;;;;;;41.45;37.10;;;;;;;;;;5056797;28;20560;-81
2020/12/16 04:36:15;;;;;;;39.75;36.05;;;;;;;;;;5055923;28;20223;-81
2020/12/16 04:38:42;;;;;;;38.33;34.85;;;;;;;;;;5057058;28;20187;-81
2020/12/16 04:41:09;;;;;;;42.97;38.50;;;;;;;;;;5057110;28;20558;-81
2020/12/16 04:43:42;;;;;;;41.50;37.15;;;;;;;;;;5057242;28;20633;-81
2020/12/16 04:46:10;;;;;;;44.83;40.13;;;;;;;;;;5056397;28;20226;-81
2020/12/16 04:48:37;;;;;;;43.05;38.60;;;;;;;;;;5056420;28;20307;-81
2020/12/16 04:51:04;;;;;;;49.53;43.10;;;;;;;;;;5056354;28;20632;-81
2020/12/16 04:53:33;;;;;;;47.08;41.63;;;;;;;;;;5056597;28;20197;-81
2020/12/16 04:56:00;;;;;;;50.42;43.70;;;;;;;;;;5056602;28;20218;-81
2020/12/16 04:58:27;;;;;;;50.50;43.40;;;;;;;;;;5056374;28;20194;-81
2020/12/16 05:00:54;;;;;;;44.15;39.83;;;;;;;;;;5056323;28;20195;-81
2020/12/16 05:03:21;;;;;;;46.67;41.38;;;;;;;;;;5055992;28;20232;-81
2020/12/16 05:05:48;;;;;;;47.20;42.10;;;;;;;;;;5055885;28;20192;-81
2020/12/16 05:08:16;;;;;;;56.97;45.85;;;;;;;;;;5056307;28;20197;-81
2020/12/16 05:10:43;;;;;;;63.20;43.75;;;;;;;;;;5056261;28;20186;-81
2020/12/16 05:13:11;;;;;;;49.88;44.30;;;;;;;;;;5056278;28;20190;-81
2020/12/16 05:15:38;;;;;;;47.00;42.05;;;;;;;;;;5055989;28;20218;-81
2020/12/16 05:18:10;;;;;;;60.88;48.08;;;;;;;;;;5056133;28;20196;-81
2020/12/16 05:20:37;;;;;;;58.40;46.17;;;;;;;;;;5055658;28;20543;-81
2020/12/16 05:23:05;;;;;;;48.85;42.03;;;;;;;;;;5056164;28;20268;-81
2020/12/16 05:25:32;;;;;;;49.65;41.55;;;;;;;;;;5055805;28;20199;-80
2020/12/16 05:27:59;;;;;;;51.88;41.90;;;;;;;;;;5055893;28;20193;-81
2020/12/16 05:30:26;;;;;;;50.28;42.80;;;;;;;;;;5037949;28;20214;-81
2020/12/16 05:32:53;;;;;;;45.45;40.67;;;;;;;;;;5055724;28;20580;-81
2020/12/16 05:35:23;;;;;;;47.13;40.92;;;;;;;;;;5055586;28;20192;-81
2020/12/16 05:37:50;;;;;;;44.33;39.33;;;;;;;;;;5055459;28;20641;-81
2020/12/16 05:40:17;;;;;;;45.42;40.55;;;;;;;;;;5055565;28;20277;-81
2020/12/16 05:42:47;;;;;;;42.03;37.78;;;;;;;;;;5055553;28;20207;-81
2020/12/16 05:45:15;;;;;;;47.33;42.22;;;;;;;;;;5055561;28;20190;-81
2020/12/16 05:47:43;;;;;;;59.42;45.25;;;;;;;;;;5053672;28;20304;-81
2020/12/16 05:50:16;;;;;;;49.10;42.28;;;;;;;;;;5054964;28;20547;-81
2020/12/16 05:52:43;;;;;;;49.60;43.03;;;;;;;;;;5055009;28;20198;-81
2020/12/16 05:55:10;;;;;;;52.30;43.90;;;;;;;;;;5054845;28;20254;-82
2020/12/16 05:57:37;;;;;;;54.20;44.50;;;;;;;;;;5054999;28;20218;-82
2020/12/16 06:00:06;;;;;;;58.53;45.05;;;;;;;;;;5054983;28;20196;-81
2020/12/16 06:02:35;;;;;;;62.85;47.05;;;;;;;;;;5054585;28;20236;-81
2020/12/16 06:05:01;;;;;;;51.40;42.95;;;;;;;;;;5055423;28;20279;-81
2020/12/16 06:07:29;;;;;;;48.45;42.35;;;;;;;;;;5054603;28;20193;-81
2020/12/16 06:09:57;;;;;;;55.80;43.03;;;;;;;;;;5054570;28;20202;-81
2020/12/16 06:12:27;;;;;;;51.33;39.20;;;;;;;;;;5054870;28;20245;-81
2020/12/16 06:15:02;;;;;;;49.35;40.85;;;;;;;;;;5055096;28;20277;-81
2020/12/16 06:17:32;;;;;;;46.45;39.50;;;;;;;;;;5037021;28;20235;-81
2020/12/16 06:20:01;;;;;;;45.63;40.47;;;;;;;;;;5054451;28;20692;-81
2020/12/16 06:22:33;;;;;;;51.17;42.67;;;;;;;;;;5054539;28;20195;-81
2020/12/16 06:25:03;;;;;;;43.28;38.65;;;;;;;;;;5053925;28;20659;-81
2020/12/16 06:27:33;;;;;;;48.47;40.00;;;;;;;;;;5054616;28;20271;-81
2020/12/16 06:30:02;;;;;;;41.30;36.85;;;;;;;;;;5054628;28;20190;-81
2020/12/16 06:32:33;;;;;;;47.63;38.65;;;;;;;;;;5054231;28;20657;-84
2020/12/16 06:35:00;;;;;;;42.15;37.85;;;;;;;;;;5054318;28;20196;-81
2020/12/16 06:37:27;;;;;;;51.05;40.38;;;;;;;;;;5054273;28;20225;-81
2020/12/16 06:39:54;;;;;;;48.05;40.35;;;;;;;;;;5054596;28;20201;-81
2020/12/16 06:42:34;;;;;;;62.85;42.30;;;;;;;;;;5054217;28;20198;-81
2020/12/16 06:45:10;;;;;;;53.78;41.88;;;;;;;;;;5054135;28;20199;-82
2020/12/16 06:47:37;;;;;;;51.47;41.30;;;;;;;;;;5054562;28;20591;-82
2020/12/16 06:50:16;;;;;;;41.95;37.65;;;;;;;;;;5052567;28;20636;-81
2020/12/16 06:52:43;;;;;;;40.58;35.35;;;;;;;;;;5054222;28;20276;-81
2020/12/16 06:55:10;;;;;;;43.92;38.90;;;;;;;;;;5053458;28;20198;-81
2020/12/16 06:57:47;;;;;;;42.53;36.75;;;;;;;;;;5053254;28;20234;-81
2020/12/16 07:00:21;;;;;;;40.28;34.45;;;;;;;;;;5053752;28;20210;-81
2020/12/16 07:02:48;;;;;;;38.30;34.33;;;;;;;;;;5053713;28;20261;-81
2020/12/16 07:05:33;;;;;;;39.53;35.28;;;;;;;;;;5053574;28;20201;-80
2020/12/16 07:08:00;;;;;;;43.67;39.13;;;;;;;;;;5054514;28;20205;-80
2020/12/16 07:10:47;;;;;;;40.38;35.15;;;;;;;;;;5053298;28;20212;-81
2020/12/16 07:13:16;;;;;;;39.90;35.95;;;;;;;;;;5053927;28;20186;-81
2020/12/16 07:15:44;;;;;;;42.30;38.22;;;;;;;;;;5053614;28;20186;-81
2020/12/16 07:18:21;;;;;;;37.70;34.05;;;;;;;;;;5053663;28;20193;-82
2020/12/16 07:20:48;;;;;;;35.58;32.03;;;;;;;;;;5053614;28;20201;-82
2020/12/16 07:23:15;;;;;;;39.13;35.13;;;;;;;;;;5054544;28;20202;-82
2020/12/16 07:25:44;;;;;;;39.28;35.20;;;;;;;;;;5053689;28;20198;-82
2020/12/16 07:28:12;;;;;;;38.30;34.47;;;;;;;;;;5053486;28;20320;-82
2020/12/16 07:30:49;;;;;;;41.17;37.10;;;;;;;;;;5053807;28;20270;-82
2020/12/16 07:33:17;;;;;;;39.80;36.15;;;;;;;;;;5053799;28;20527;-83
2020/12/16 07:35:46;;;;;;;41.47;37.28;;;;;;;;;;5054088;28;20655;-83
2020/12/16 07:38:13;;;;;;;40.20;36.25;;;;;;;;;;5053423;28;20697;-86
2020/12/16 07:40:40;;;;;;;40.03;36.08;;;;;;;;;;5053880;28;20199;-81
2020/12/16 07:43:09;;;;;;;40.13;36.30;;;;;;;;;;5053283;28;20219;-81
2020/12/16 07:45:35;;;;;;;40.30;36.22;;;;;;;;;;5053749;28;20273;-82
2020/12/16 07:48:05;;;;;;;40.53;36.78;;;;;;;;;;5053993;28;20244;-84
2020/12/16 07:50:32;;;;;;;43.28;39.10;;;;;;;;;;5053812;28;20278;-84
2020/12/16 07:52:59;;;;;;;40.88;36.75;;;;;;;;;;5053817;28;20196;-81
2020/12/16 07:55:26;;;;;;;42.15;38.05;;;;;;;;;;5053866;28;20190;-83
2020/12/16 07:57:53;;;;;;;38.38;34.70;;;;;;;;;;5053879;28;20221;-83
2020/12/16 08:00:22;;;;;;;38.78;35.25;;;;;;;;;;5053322;28;20202;-83
2020/12/16 08:02:54;;;;;;;39.45;35.70;;;;;;;;;;5053421;28;20237;-83
2020/12/16 08:05:23;;;;;;;39.30;35.83;;;;;;;;;;5053415;28;20643;-83
2020/12/16 08:07:50;;;;;;;39.55;35.75;;;;;;;;;;5053346;28;20666;-83
2020/12/16 08:10:17;;;;;;;39.08;35.35;;;;;;;;;;5053625;28;20252;-83
2020/12/16 08:12:45;;;;;;;39.00;35.50;;;;;;;;;;5057246;28;20197;-82
2020/12/16 08:15:12;;;;;;;38.20;34.40;;;;;;;;;;5057600;28;20201;-83
2020/12/16 08:17:41;;;;;;;38.95;35.25;;;;;;;;;;5057049;28;20226;-83
2020/12/16 08:20:09;;;;;;;38.30;34.70;;;;;;;;;;5057364;28;20199;-83
2020/12/16 08:22:37;;;;;;;38.88;35.22;;;;;;;;;;5056916;28;20190;-82
2020/12/16 08:25:08;;;;;;;39.28;35.67;;;;;;;;;;5057123;28;20645;-83
2020/12/16 08:27:35;;;;;;;42.28;38.47;;;;;;;;;;5057371;28;20197;-83
2020/12/16 08:30:02;;;;;;;41.47;37.60;;;;;;;;;;5056572;28;20657;-83
2020/12/16 08:32:30;;;;;;;40.20;36.30;;;;;;;;;;5056964;28;20225;-83
2020/12/16 08:34:58;;;;;;;37.65;34.40;;;;;;;;;;5039865;28;20242;-84
2020/12/16 08:37:25;;;;;;;40.38;36.92;;;;;;;;;;5056797;28;20229;-83
2020/12/16 08:39:54;;;;;;;38.85;35.40;;;;;;;;;;5057194;28;20194;-84
2020/12/16 08:42:25;;;;;;;40.90;36.85;;;;;;;;;;5057018;28;20192;-84
2020/12/16 08:44:52;;;;;;;38.28;34.25;;;;;;;;;;5055943;28;20185;-84
2020/12/16 08:47:30;;;;;;;38.45;34.92;;;;;;;;;;5056736;28;20223;-84
2020/12/16 08:49:57;;;;;;;39.40;35.95;;;;;;;;;;5056887;28;20274;-84
2020/12/16 08:52:24;;;;;;;37.95;34.75;;;;;;;;;;5056279;28;20237;-85
2020/12/16 08:54:51;;;;;;;38.47;35.20;;;;;;;;;;5056566;28;20594;-83
2020/12/16 08:57:20;;;;;;;37.13;33.95;;;;;;;;;;5056342;28;20244;-83
2020/12/16 08:59:47;;;;;;;38.10;34.80;;;;;;;;;;5056488;28;20613;-83
2020/12/16 09:02:15;;;;;;;39.15;35.83;;;;;;;;;;5055517;28;20337;-83
2020/12/16 09:04:43;;;;;;;35.70;32.80;;;;;;;;;;5056920;28;20200;-83
2020/12/16 09:07:11;;;;;;;36.78;33.70;;;;;;;;;;5038578;28;20652;-82
2020/12/16 09:09:38;;;;;;;36.50;33.40;;;;;;;;;;5056207;28;20200;-84
2020/12/16 09:12:11;;;;;;;36.20;33.10;;;;;;;;;;5056448;28;20202;-83
2020/12/16 09:14:39;;;;;;;38.67;35.28;;;;;;;;;;5056145;28;20242;-82
2020/12/16 09:17:07;;;;;;;36.80;33.67;;;;;;;;;;5055968;28;20216;-81
2020/12/16 09:19:35;;;;;;;33.25;30.65;;;;;;;;;;5055416;28;20430;-81
2020/12/16 09:22:02;;;;;;;34.38;31.45;;;;;;;;;;5055054;28;20192;-80
2020/12/16 09:24:29;;;;;;;36.17;32.85;;;;;;;;;;5055454;28;20230;-81
2020/12/16 09:26:59;;;;;;;38.90;35.47;;;;;;;;;;5055867;28;20214;-81
2020/12/16 09:29:27;;;;;;;34.35;31.27;;;;;;;;;;5056064;28;20191;-80
2020/12/16 09:32:06;;;;;;;37.05;33.80;;;;;;;;;;5055808;28;20184;-82
2020/12/16 09:34:36;;;;;;;38.00;34.70;;;;;;;;;;5055240;28;20655;-81
2020/12/16 09:37:10;;;;;;;38.85;35.33;;;;;;;;;;5054970;28;20215;-80
2020/12/16 09:39:37;;;;;;;39.83;36.43;;;;;;;;;;5055427;28;20253;-80
2020/12/16 09:42:08;;;;;;;40.63;37.08;;;;;;;;;;5056175;28;20461;-81
2020/12/16 09:44:35;;;;;;;41.53;37.83;;;;;;;;;;5055813;28;20646;-81
2020/12/16 09:47:16;;;;;;;42.22;38.53;;;;;;;;;;5054570;28;20216;-81
2020/12/16 09:49:44;;;;;;;40.28;36.83;;;;;;;;;;5055773;28;20200;-80
2020/12/16 09:52:26;;;;;;;38.38;34.80;;;;;;;;;;5055285;28;20188;-81
2020/12/16 09:54:53;;;;;;;39.90;36.35;;;;;;;;;;5055264;28;20245;-80
2020/12/16 09:57:21;;;;;;;40.40;36.67;;;;;;;;;;5054696;28;20622;-79
2020/12/16 09:59:48;;;;;;;41.03;37.03;;;;;;;;;;5054442;28;20509;-80
2020/12/16 10:02:17;;;;;;;39.00;35.50;;;;;;;;;;5054660;28;20322;-80
2020/12/16 10:04:44;;;;;;;40.63;36.80;;;;;;;;;;5055505;28;20189;-80
2020/12/16 10:07:10;;;;;;;38.50;35.17;;;;;;;;;;5055204;28;20188;-80
2020/12/16 10:09:39;;;;;;;39.90;36.40;;;;;;;;;;5055735;28;20821;-80
2020/12/16 10:12:06;;;;;;;42.20;38.30;;;;;;;;;;5055410;28;20188;-81
2020/12/16 10:14:33;;;;;;;38.07;34.77;;;;;;;;;;5054672;28;20921;-81
2020/12/16 10:17:00;;;;;;;38.78;35.30;;;;;;;;;;5054637;28;20474;-78
2020/12/16 10:19:28;;;;;;;39.30;35.78;;;;;;;;;;5054608;28;20190;-86
2020/12/16 10:21:54;;;;;;;36.77;33.60;;;;;;;;;;5054667;28;20629;-79
2020/12/16 10:24:21;;;;;;;38.37;34.90;;;;;;;;;;5054254;28;20924;-83
2020/12/16 10:26:48;;;;;;;33.25;30.55;;;;;;;;;;5054734;28;20434;-82
2020/12/16 10:29:17;;;;;;;35.60;32.57;;;;;;;;;;5055045;28;20210;-82
2020/12/16 10:31:47;;;;;;;36.67;33.38;;;;;;;;;;5054372;28;20519;-82
2020/12/16 10:34:14;;;;;;;35.90;32.90;;;;;;;;;;5054074;28;20536;-83
2020/12/16 10:36:42;;;;;;;35.03;32.03;;;;;;;;;;5054644;28;20224;-82
2020/12/16 10:39:09;;;;;;;34.28;31.67;;;;;;;;;;5055544;28;20188;-83
2020/12/16 10:41:36;;;;;;;35.08;32.10;;;;;;;;;;5054740;28;20215;-82
2020/12/16 10:44:03;;;;;;;35.95;32.75;;;;;;;;;;5054735;28;20195;-87
2020/12/16 10:46:29;;;;;;;34.23;31.40;;;;;;;;;;5054116;28;20237;-78
2020/12/16 10:48:56;;;;;;;32.95;30.25;;;;;;;;;;5053992;28;20439;-82
2020/12/16 10:51:26;;;;;;;34.57;31.70;;;;;;;;;;5054369;28;20188;-81
2020/12/16 10:53:54;;;;;;;32.75;29.77;;;;;;;;;;5054453;28;20521;-83
2020/12/16 10:56:21;;;;;;;32.58;30.02;;;;;;;;;;5054044;28;20574;-80
2020/12/16 10:58:50;;;;;;;32.90;30.35;;;;;;;;;;5054343;28;20208;-82
2020/12/16 11:01:17;;;;;;;29.92;27.70;;;;;;;;;;5053866;28;20732;-85
2020/12/16 11:03:43;;;;;;;32.67;29.77;;;;;;;;;;5053864;28;20194;-78
2020/12/16 11:06:12;;;;;;;33.63;30.65;;;;;;;;;;5054022;28;20435;-82
2020/12/16 11:08:40;;;;;;;32.40;29.80;;;;;;;;;;5055144;28;20191;-83
2020/12/16 11:11:06;;;;;;;33.73;31.03;;;;;;;;;;5036590;28;20428;-83
2020/12/16 11:13:33;;;;;;;32.47;29.90;;;;;;;;;;5053881;28;20441;-82
2020/12/16 11:16:01;;;;;;;30.60;28.10;;;;;;;;;;5053808;28;20437;-83
2020/12/16 11:18:28;;;;;;;31.17;28.67;;;;;;;;;;5054198;28;20413;-82
2020/12/16 11:20:55;;;;;;;32.13;29.73;;;;;;;;;;5035883;28;20428;-82
2020/12/16 11:23:21;;;;;;;33.43;30.73;;;;;;;;;;5054315;28;20424;-85
2020/12/16 11:25:48;;;;;;;32.80;30.10;;;;;;;;;;5054184;28;20413;-81
2020/12/16 11:28:15;;;;;;;33.25;30.58;;;;;;;;;;5054181;28;20416;-84
2020/12/16 11:30:42;;;;;;;30.20;28.00;;;;;;;;;;5053630;28;20253;-83
2020/12/16 11:33:10;;;;;;;33.47;30.90;;;;;;;;;;5053513;28;20456;-84
2020/12/16 11:35:37;;;;;;;31.90;29.47;;;;;;;;;;5053677;28;20191;-84
2020/12/16 11:38:04;;;;;;;31.52;29.10;;;;;;;;;;5053788;28;20961;-84
2020/12/16 11:40:30;;;;;;;31.80;29.20;;;;;;;;;;5053942;28;20215;-84
2020/12/16 11:42:57;;;;;;;33.63;30.73;;;;;;;;;;5054157;28;20444;-83
2020/12/16 11:45:24;;;;;;;32.10;29.60;;;;;;;;;;5056947;28;20424;-86
2020/12/16 11:47:52;;;;;;;33.87;31.03;;;;;;;;;;5056734;28;20481;-82
2020/12/16 11:50:19;;;;;;;30.33;27.95;;;;;;;;;;5058020;28;20419;-83
2020/12/16 11:52:46;;;;;;;29.90;27.03;;;;;;;;;;5057970;28;20261;-83
2020/12/16 11:55:13;;;;;;;32.67;30.00;;;;;;;;;;5057966;28;20449;-83
2020/12/16 11:57:40;;;;;;;30.83;28.33;;;;;;;;;;5057764;28;20219;-84
2020/12/16 12:00:07;;;;;;;32.00;29.40;;;;;;;;;;5057493;28;20427;-84
2020/12/16 12:02:34;;;;;;;28.85;26.55;;;;;;;;;;5057593;28;20455;-83
2020/12/16 12:05:02;;;;;;;32.00;29.60;;;;;;;;;;5057870;28;20249;-84
2020/12/16 12:07:30;;;;;;;30.92;28.60;;;;;;;;;;5057705;28;20450;-84
2020/12/16 12:09:57;;;;;;;30.40;28.08;;;;;;;;;;5056988;28;20269;-83
2020/12/16 12:12:24;;;;;;;30.50;28.02;;;;;;;;;;5057632;28;20207;-83
2020/12/16 12:14:50;;;;;;;28.80;26.60;;;;;;;;;;5057244;28;20188;-83
2020/12/16 12:17:17;;;;;;;30.00;27.80;;;;;;;;;;5058175;28;20488;-86
2020/12/16 12:19:44;;;;;;;29.07;27.07;;;;;;;;;;5057384;28;20434;-83
2020/12/16 12:22:11;;;;;;;29.60;27.53;;;;;;;;;;5039759;28;20432;-86
2020/12/16 12:24:39;;;;;;;31.13;28.83;;;;;;;;;;5057302;28;20442;-83
2020/12/16 12:27:06;;;;;;;29.47;27.30;;;;;;;;;;5058258;28;20761;-84
2020/12/16 12:29:32;;;;;;;29.87;27.90;;;;;;;;;;5057641;28;20428;-84
2020/12/16 12:31:59;;;;;;;28.70;26.60;;;;;;;;;;5057160;28;20429;-83
2020/12/16 12:34:26;;;;;;;28.40;26.40;;;;;;;;;;5057010;28;20440;-83
2020/12/16 12:36:53;;;;;;;27.48;25.48;;;;;;;;;;5056655;28;20543;-82
2020/12/16 12:39:20;;;;;;;27.92;25.92;;;;;;;;;;5056871;28;20195;-83
2020/12/16 12:41:47;;;;;;;29.97;27.83;;;;;;;;;;5056740;28;20198;-82
2020/12/16 12:44:14;;;;;;;28.47;26.40;;;;;;;;;;5056791;28;20437;-83
2020/12/16 12:46:41;;;;;;;28.20;26.10;;;;;;;;;;5056917;28;20482;-83
2020/12/16 12:49:08;;;;;;;27.87;25.87;;;;;;;;;;5056671;28;20453;-83
2020/12/16 12:51:35;;;;;;;29.77;27.48;;;;;;;;;;5039152;28;20420;-83
2020/12/16 12:54:02;;;;;;;27.07;25.27;;;;;;;;;;5056712;28;20328;-83
2020/12/16 12:56:28;;;;;;;27.77;25.85;;;;;;;;;;5055344;28;20575;-83
2020/12/16 12:58:57;;;;;;;26.90;24.90;;;;;;;;;;5056737;28;20249;-84
2020/12/16 13:01:24;;;;;;;28.60;26.57;;;;;;;;;;5056440;28;20537;-83
2020/12/16 13:03:50;;;;;;;28.67;26.33;;;;;;;;;;5056789;28;20449;-84
2020/12/16 13:06:17;;;;;;;29.30;27.20;;;;;;;;;;5056727;28;20548;-83
2020/12/16 13:08:44;;;;;;;29.00;27.00;;;;;;;;;;5056625;28;20207;-83
2020/12/16 13:11:11;;;;;;;27.60;25.70;;;;;;;;;;5056013;28;20486;-84
2020/12/16 13:13:38;;;;;;;28.40;26.37;;;;;;;;;;5055908;28;21003;-84
2020/12/16 13:16:07;;;;;;;29.63;27.53;;;;;;;;;;5056326;28;20771;-85
2020/12/16 13:18:34;;;;;;;28.53;26.53;;;;;;;;;;5056364;28;20434;-83
2020/12/16 13:21:00;;;;;;;27.87;25.97;;;;;;;;;;5056523;28;20424;-83
2020/12/16 13:23:27;;;;;;;28.83;26.90;;;;;;;;;;5056143;28;20416;-83
2020/12/16 13:25:55;;;;;;;29.30;27.20;;;;;;;;;;5055168;28;20291;-85
2020/12/16 13:28:22;;;;;;;30.13;28.03;;;;;;;;;;5055196;28;20431;-85
2020/12/16 13:30:48;;;;;;;29.27;27.27;;;;;;;;;;5038469;28;20446;-85
2020/12/16 13:33:16;;;;;;;28.73;26.53;;;;;;;;;;5056335;28;20449;-85
2020/12/16 13:35:43;;;;;;;28.90;26.60;;;;;;;;;;5056084;28;20877;-84
2020/12/16 13:38:10;;;;;;;30.10;27.80;;;;;;;;;;5055853;28;20837;-85
2020/12/16 13:40:37;;;;;;;27.97;25.97;;;;;;;;;;5056009;28;20466;-84
2020/12/16 13:43:04;;;;;;;29.20;27.00;;;;;;;;;;5056008;28;20453;-85
2020/12/16 13:45:30;;;;;;;29.97;27.80;;;;;;;;;;5038374;28;20514;-85
2020/12/16 13:47:57;;;;;;;29.47;27.33;;;;;;;;;;5055770;28;20448;-84
2020/12/16 13:50:25;;;;;;;28.83;26.73;;;;;;;;;;5055798;28;20431;-83
2020/12/16 13:52:52;;;;;;;27.90;26.00;;;;;;;;;;5055760;28;20453;-83
2020/12/16 13:55:20;;;;;;;28.70;26.70;;;;;;;;;;5055835;28;20907;-82
2020/12/16 13:57:47;;;;;;;28.97;27.00;;;;;;;;;;5055723;28;20481;-84
2020/12/16 14:00:14;;;;;;;29.60;27.60;;;;;;;;;;5055647;28;20413;-85
2020/12/16 14:02:40;;;;;;;28.40;26.40;;;;;;;;;;5055254;28;20941;-83
2020/12/16 14:05:07;;;;;;;29.43;27.30;;;;;;;;;;5055520;28;20512;-82
2020/12/16 14:07:35;;;;;;;29.83;27.73;;;;;;;;;;5054341;28;20910;-81
2020/12/16 14:10:02;;;;;;;28.97;27.07;;;;;;;;;;5056076;28;20495;-80
2020/12/16 14:12:29;;;;;;;28.85;26.67;;;;;;;;;;5055195;28;20433;-80
2020/12/16 14:14:56;;;;;;;27.87;25.97;;;;;;;;;;5054682;28;20199;-79
2020/12/16 14:17:22;;;;;;;28.33;26.43;;;;;;;;;;5054830;28;20987;-80
2020/12/16 14:19:49;;;;;;;29.10;27.10;;;;;;;;;;5054565;28;20454;-80